Time;durP1;ratioP1;P1;durP2;ratioP2;P2;SDS_P1;SDS_P2;PMS_P1;PMS_P2;Temp;Humidity;BMP_temperature;BMP_pressure;BME280_temperature;BME280_humidity;BME280_pressure;Samples;Min_cycle;Max_cycle;Signal;HPM_P1;HPM_P2
2023/02/18 00:01:29;;;;;;;11.55;2.92;;;;;;;10.86;92.68;100898.84;4988763;28;20043;-48
2023/02/18 00:03:57;;;;;;;7.07;1.40;;;;;;;10.86;92.82;100898.84;4989454;28;20061;-45
2023/02/18 00:06:27;;;;;;;15.13;2.78;;;;;;;10.85;92.87;100908.34;4989495;28;20444;-45
2023/02/18 00:08:54;;;;;;;8.20;2.05;;;;;;;10.84;93.06;100904.75;4985962;28;20078;-45
2023/02/18 00:11:22;;;;;;;5.35;1.42;;;;;;;10.84;92.92;100893.69;4984152;28;20492;-46
2023/02/18 00:13:55;;;;;;;8.85;2.25;;;;;;;10.82;92.96;100884.91;4989024;28;20496;-49
2023/02/18 00:16:24;;;;;;;5.38;1.65;;;;;;;10.81;93.20;100890.78;4988805;28;20062;-45
2023/02/18 00:18:58;;;;;;;9.75;1.65;;;;;;;10.79;93.47;100882.00;4989207;28;20488;-44
2023/02/18 00:21:29;;;;;;;9.05;1.25;;;;;;;10.78;93.50;100880.38;4976511;28;20044;-44
2023/02/18 00:23:55;;;;;;;19.38;4.10;;;;;;;10.75;93.71;100884.63;4986048;28;20447;-45
2023/02/18 00:26:23;;;;;;;9.38;2.10;;;;;;;10.73;93.89;100872.28;4985066;28;20054;-45
2023/02/18 00:28:51;;;;;;;4.68;1.40;;;;;;;10.71;93.99;100869.06;4987181;28;20105;-45
2023/02/18 00:31:29;;;;;;;7.65;1.27;;;;;;;10.69;94.11;100868.59;4993094;28;20050;-47
2023/02/18 00:33:57;;;;;;;6.07;2.45;;;;;;;10.71;94.20;100869.88;4997193;28;20137;-46
2023/02/18 00:36:25;;;;;;;7.43;1.83;;;;;;;10.71;94.39;100875.41;4992891;28;20049;-44
2023/02/18 00:38:54;;;;;;;8.98;2.00;;;;;;;10.71;94.24;100882.91;4992605;28;20125;-44
2023/02/18 00:41:23;;;;;;;7.65;1.30;;;;;;;10.69;94.39;100874.97;4992205;28;20497;-44
2023/02/18 00:43:51;;;;;;;8.98;1.40;;;;;;;10.67;94.68;100860.63;4989254;28;20050;-47
2023/02/18 00:46:17;;;;;;;10.00;1.70;;;;;;;10.67;94.73;100857.06;4992783;28;20054;-45
2023/02/18 00:48:45;;;;;;;8.35;2.08;;;;;;;10.66;95.03;100866.53;4975188;28;20489;-45
2023/02/18 00:51:12;;;;;;;5.20;1.45;;;;;;;10.65;95.09;100865.69;4992281;28;20050;-45
2023/02/18 00:53:39;;;;;;;6.25;1.50;;;;;;;10.62;95.40;100866.38;4992617;28;20485;-45
2023/02/18 00:56:07;;;;;;;6.43;1.77;;;;;;;10.60;95.55;100857.63;4992456;28;20054;-45
2023/02/18 00:58:35;;;;;;;10.25;1.77;;;;;;;10.60;95.78;100856.81;4975683;28;20046;-45
2023/02/18 01:01:04;;;;;;;11.38;1.73;;;;;;;10.59;96.16;100855.22;4983450;28;20194;-45
2023/02/18 01:03:34;;;;;;;7.30;1.40;;;;;;;10.58;96.37;100853.56;4991294;28;20051;-45
2023/02/18 01:06:00;;;;;;;6.18;1.67;;;;;;;10.58;96.39;100864.66;4991640;28;20113;-45
2023/02/18 01:08:27;;;;;;;4.40;1.17;;;;;;;10.56;96.47;100856.69;4991065;28;20081;-45
2023/02/18 01:10:56;;;;;;;4.00;1.17;;;;;;;10.55;96.79;100854.25;4996901;28;20489;-47
2023/02/18 01:13:26;;;;;;;4.78;1.05;;;;;;;10.53;97.02;100851.03;4986628;28;20430;-44
2023/02/18 01:15:53;;;;;;;5.05;1.05;;;;;;;10.50;97.31;100841.44;4987125;28;20042;-48
2023/02/18 01:18:20;;;;;;;4.93;0.88;;;;;;;10.49;97.75;100839.00;4990862;28;20042;-48
2023/02/18 01:20:49;;;;;;;6.28;1.48;;;;;;;10.48;97.68;100842.94;4991420;28;20089;-44
2023/02/18 01:23:17;;;;;;;5.90;1.58;;;;;;;10.45;97.78;100832.56;4980315;28;20110;-45
2023/02/18 01:25:44;;;;;;;5.10;1.10;;;;;;;10.43;98.24;100834.88;4974439;28;20050;-44
2023/02/18 01:28:12;;;;;;;3.40;0.95;;;;;;;10.40;98.44;100837.13;4991881;28;20504;-44
2023/02/18 01:30:40;;;;;;;4.03;1.05;;;;;;;10.39;98.55;100846.59;4991746;28;20058;-44
2023/02/18 01:33:08;;;;;;;7.32;1.88;;;;;;;10.39;98.82;100852.16;4992904;28;20506;-45
2023/02/18 01:35:38;;;;;;;6.10;0.73;;;;;;;10.40;99.27;100841.88;4985683;28;20496;-44
2023/02/18 01:38:05;;;;;;;4.32;1.50;;;;;;;10.40;99.40;100831.59;4990988;28;20089;-45
2023/02/18 01:40:32;;;;;;;4.22;1.13;;;;;;;10.39;99.63;100827.25;4991410;28;20046;-45
2023/02/18 01:42:59;;;;;;;4.57;1.10;;;;;;;10.40;99.76;100815.00;4988046;28;20042;-45
2023/02/18 01:45:37;;;;;;;2.22;0.80;;;;;;;10.40;100.00;100817.75;4989588;28;20052;-44
2023/02/18 01:48:10;;;;;;;4.07;1.05;;;;;;;10.40;100.00;100803.94;4990692;28;20493;-44
2023/02/18 01:50:52;;;;;;;5.72;1.33;;;;;;;10.41;100.00;100829.66;4989749;28;20519;-44
2023/02/18 01:53:36;;;;;;;1.37;0.70;;;;;;;10.42;100.00;100834.03;4967724;28;20045;-48
2023/02/18 01:56:07;;;;;;;2.42;0.80;;;;;;;10.44;100.00;100819.84;4990809;28;20057;-44
2023/02/18 01:58:35;;;;;;;3.03;0.50;;;;;;;10.48;100.00;100810.53;4986744;28;20058;-45
2023/02/18 02:01:03;;;;;;;5.07;0.70;;;;;;;10.52;100.00;100838.31;4967237;28;20038;-44
2023/02/18 02:03:30;;;;;;;2.83;0.50;;;;;;;10.55;100.00;100826.56;4987369;28;20058;-46
2023/02/18 02:05:57;;;;;;;2.97;0.65;;;;;;;10.56;100.00;100830.97;4991764;28;20112;-44
2023/02/18 02:08:24;;;;;;;6.93;1.40;;;;;;;10.57;100.00;100818.72;4989934;28;20109;-45
2023/02/18 02:11:20;;;;;;;2.03;0.75;;;;;;;10.59;100.00;100813.69;4995128;28;20072;-44
2023/02/18 02:13:49;;;;;;;3.13;0.80;;;;;;;10.59;100.00;100821.97;4982346;28;20436;-44
2023/02/18 02:16:38;;;;;;;1.98;0.65;;;;;;;10.61;100.00;100822.44;4991213;28;20506;-45
2023/02/18 02:19:20;;;;;;;1.67;0.60;;;;;;;10.60;100.00;100821.63;4973908;28;20085;-45
2023/02/18 02:22:02;;;;;;;3.45;0.30;;;;;;;10.63;100.00;100839.50;4991613;28;20057;-45
2023/02/18 02:24:44;;;;;;;2.10;0.52;;;;;;;10.62;100.00;100827.63;4990816;28;20453;-45
2023/02/18 02:27:11;;;;;;;1.45;0.45;;;;;;;10.62;100.00;100829.56;4984934;28;20104;-47
2023/02/18 02:30:03;;;;;;;4.00;0.40;;;;;;;10.63;100.00;100837.56;4991469;28;20038;-48
2023/02/18 02:33:21;;;;;;;0.38;0.35;;;;;;;10.63;100.00;100848.63;4990769;28;20049;-44
2023/02/18 02:36:20;;;;;;;1.80;0.30;;;;;;;10.64;100.00;100854.97;4951666;28;20490;-44
2023/02/18 02:38:56;;;;;;;2.05;0.50;;;;;;;10.65;100.00;100853.81;4991089;28;20048;-45
2023/02/18 02:42:01;;;;;;;3.20;0.50;;;;;;;10.66;100.00;100859.03;4990886;28;20144;-44
2023/02/18 02:44:54;;;;;;;0.40;0.25;;;;;;;10.69;100.00;100857.53;4988920;28;20101;-45
2023/02/18 02:47:47;;;;;;;0.70;0.20;;;;;;;10.71;100.00;100849.69;4984478;28;20073;-44
2023/02/18 02:50:27;;;;;;;0.35;0.22;;;;;;;10.72;100.00;100845.78;4988652;28;20057;-44
2023/02/18 02:53:01;;;;;;;1.15;0.43;;;;;;;10.72;100.00;100851.31;4979133;28;20046;-51
2023/02/18 02:55:27;;;;;;;0.82;0.40;;;;;;;10.72;100.00;100838.25;4989276;28;20049;-44
2023/02/18 02:57:55;;;;;;;0.47;0.20;;;;;;;10.75;100.00;100831.25;4980049;28;20404;-45
2023/02/18 03:03:13;;;;;;;1.65;0.10;;;;;;;10.78;100.00;100841.59;4954570;23;20046;-46
2023/02/18 03:06:09;;;;;;;0.15;0.10;;;;;;;10.79;100.00;100855.13;5021340;28;20046;-49
2023/02/18 03:09:04;;;;;;;1.25;0.10;;;;;;;10.80;100.00;100856.72;5016394;28;20095;-47
2023/02/18 03:11:42;;;;;;;0.75;0.17;;;;;;;10.82;100.00;100859.16;5021617;28;20034;-45
2023/02/18 03:14:40;;;;;;;0.20;0.10;;;;;;;10.83;100.00;100855.22;5013237;28;20561;-45
2023/02/18 03:17:19;;;;;;;0.80;0.40;;;;;;;10.82;100.00;100881.31;4997383;28;20053;-45
2023/02/18 03:19:53;;;;;;;1.15;0.30;;;;;;;10.81;100.00;100865.84;5022038;28;20053;-45
2023/02/18 03:22:26;;;;;;;4.50;0.77;;;;;;;10.76;100.00;100863.31;5029148;28;20067;-44
2023/02/18 03:24:56;;;;;;;1.08;0.70;;;;;;;10.71;100.00;100863.53;5029934;28;20075;-45
2023/02/18 03:27:31;;;;;;;3.03;0.60;;;;;;;10.66;100.00;100855.44;5029188;28;20565;-45
2023/02/18 03:30:06;;;;;;;0.63;0.32;;;;;;;10.64;100.00;100868.81;5029622;28;20048;-44
2023/02/18 03:32:34;;;;;;;3.20;1.05;;;;;;;10.61;100.00;100858.44;5029254;28;20048;-45
2023/02/18 03:35:07;;;;;;;3.15;0.73;;;;;;;10.57;100.00;100874.91;5032144;28;20045;-45
2023/02/18 03:37:40;;;;;;;10.40;2.75;;;;;;;10.55;100.00;100871.69;5029264;28;20041;-49
2023/02/18 03:40:09;;;;;;;5.10;1.92;;;;;;;10.55;100.00;100893.81;5029322;28;20045;-45
2023/02/18 03:42:36;;;;;;;4.50;0.90;;;;;;;10.52;100.00;100874.31;5014003;28;20112;-45
2023/02/18 03:45:03;;;;;;;6.00;1.25;;;;;;;10.46;100.00;100868.19;5010493;28;20049;-53
2023/02/18 03:47:30;;;;;;;5.07;1.08;;;;;;;10.38;100.00;100869.88;5015577;28;20068;-45
2023/02/18 03:49:56;;;;;;;6.85;1.60;;;;;;;10.32;100.00;100867.69;5024022;28;20077;-44
2023/02/18 03:52:23;;;;;;;7.63;2.15;;;;;;;10.28;100.00;100884.16;5021208;28;20112;-45
2023/02/18 03:54:50;;;;;;;10.98;1.52;;;;;;;10.24;100.00;100880.47;5016008;28;20137;-44
2023/02/18 03:57:17;;;;;;;6.55;1.75;;;;;;;10.22;100.00;100882.75;5020828;28;22542;-44
2023/02/18 03:59:44;;;;;;;5.55;1.33;;;;;;;10.23;100.00;100870.53;5017927;28;20137;-44
2023/02/18 04:02:11;;;;;;;14.38;3.50;;;;;;;10.22;100.00;100879.97;5015478;28;20053;-45
2023/02/18 04:04:37;;;;;;;13.93;1.88;;;;;;;10.23;100.00;100864.19;5020988;28;20045;-44
2023/02/18 04:07:04;;;;;;;7.07;1.30;;;;;;;10.23;100.00;100853.13;5025621;28;20059;-44
2023/02/18 04:09:31;;;;;;;9.43;2.38;;;;;;;10.25;100.00;100881.25;5017212;28;20053;-44
2023/02/18 04:11:58;;;;;;;6.10;1.75;;;;;;;10.25;99.84;100876.53;5025697;28;20050;-44
2023/02/18 04:14:25;;;;;;;11.05;2.88;;;;;;;10.28;99.67;100884.16;5012629;28;20050;-46
2023/02/18 04:16:51;;;;;;;5.32;1.50;;;;;;;10.29;99.34;100880.25;5021354;28;20074;-45
2023/02/18 04:19:18;;;;;;;9.23;1.60;;;;;;;10.29;98.96;100880.25;5027988;28;20522;-44
2023/02/18 04:21:45;;;;;;;10.65;2.05;;;;;;;10.26;98.60;100869.03;5027602;28;20049;-44
2023/02/18 04:24:12;;;;;;;6.47;1.63;;;;;;;10.20;98.59;100876.75;5019920;28;20052;-44
2023/02/18 04:26:38;;;;;;;5.43;2.05;;;;;;;10.16;98.62;100875.00;5010916;28;20484;-45
2023/02/18 04:29:05;;;;;;;11.88;2.35;;;;;;;10.13;98.54;100865.44;5024808;28;20054;-44
2023/02/18 04:31:32;;;;;;;8.40;1.67;;;;;;;10.08;98.47;100868.38;5021618;28;20045;-44
2023/02/18 04:33:59;;;;;;;9.35;1.80;;;;;;;10.02;98.34;100863.38;5025042;28;20145;-45
2023/02/18 04:36:26;;;;;;;8.48;1.50;;;;;;;9.96;98.68;100870.25;5028926;28;20056;-45
2023/02/18 04:38:53;;;;;;;10.35;2.30;;;;;;;9.90;98.66;100872.41;5015511;28;20051;-44
2023/02/18 04:41:20;;;;;;;8.88;2.25;;;;;;;9.87;99.00;100867.56;5023213;28;20064;-45
2023/02/18 04:43:47;;;;;;;8.07;3.05;;;;;;;9.84;98.94;100859.13;5023592;28;20049;-47
2023/02/18 04:46:14;;;;;;;6.90;1.45;;;;;;;9.81;98.82;100868.91;5009296;28;20058;-47
2023/02/18 04:48:41;;;;;;;10.63;1.33;;;;;;;9.78;98.85;100872.34;5012170;28;20033;-47
2023/02/18 04:51:07;;;;;;;7.28;1.73;;;;;;;9.77;98.79;100873.47;5017394;28;20497;-45
2023/02/18 04:53:34;;;;;;;6.15;1.50;;;;;;;9.77;98.77;100885.34;5024355;28;20512;-47
2023/02/18 04:56:01;;;;;;;6.28;2.30;;;;;;;9.75;98.57;100889.59;5019554;28;20483;-45
2023/02/18 04:58:28;;;;;;;5.05;1.10;;;;;;;9.74;98.60;100874.97;5023386;28;20410;-44
2023/02/18 05:00:59;;;;;;;6.10;1.45;;;;;;;9.74;98.31;100877.72;5025046;28;20083;-45
2023/02/18 05:03:27;;;;;;;16.98;2.30;;;;;;;9.74;98.40;100880.50;5010825;28;20140;-48
2023/02/18 05:05:54;;;;;;;3.38;1.15;;;;;;;9.73;98.40;100878.91;5028213;28;20440;-46
2023/02/18 05:08:21;;;;;;;11.73;2.13;;;;;;;9.73;98.08;100870.59;5010318;28;20037;-44
2023/02/18 05:10:48;;;;;;;10.05;1.67;;;;;;;9.76;97.92;100871.88;5031854;28;20398;-44
2023/02/18 05:13:14;;;;;;;10.13;1.40;;;;;;;9.77;97.86;100873.47;5015461;28;20064;-45
2023/02/18 05:15:41;;;;;;;7.32;1.95;;;;;;;9.81;97.83;100879.97;5027820;28;20152;-44
2023/02/18 05:18:09;;;;;;;9.20;1.38;;;;;;;9.84;97.72;100871.00;5030731;28;20410;-44
2023/02/18 05:20:35;;;;;;;6.43;1.98;;;;;;;9.87;97.75;100864.00;5031621;28;20048;-44
2023/02/18 05:23:02;;;;;;;7.95;1.77;;;;;;;9.87;97.50;100873.09;5031686;28;20128;-45
2023/02/18 05:25:29;;;;;;;13.32;3.05;;;;;;;9.85;97.48;100875.38;5031230;28;20128;-44
2023/02/18 05:27:56;;;;;;;3.83;1.13;;;;;;;9.83;97.71;100872.13;5028143;28;20410;-45
2023/02/18 05:30:23;;;;;;;8.73;1.65;;;;;;;9.80;97.80;100878.34;5020325;28;20048;-44
2023/02/18 05:32:49;;;;;;;9.45;1.88;;;;;;;9.79;97.68;100869.22;5018907;28;20505;-44
2023/02/18 05:35:16;;;;;;;4.97;1.23;;;;;;;9.78;97.87;100870.41;5019957;28;20037;-45
2023/02/18 05:37:43;;;;;;;11.07;2.42;;;;;;;9.78;97.75;100858.53;5024042;28;20038;-44
2023/02/18 05:40:10;;;;;;;14.98;3.88;;;;;;;9.77;97.75;100862.41;5024740;28;20092;-47
2023/02/18 05:42:37;;;;;;;14.88;2.35;;;;;;;9.74;97.88;100863.13;5024642;28;20042;-44
2023/02/18 05:45:04;;;;;;;7.10;1.40;;;;;;;9.72;98.02;100868.16;5016646;28;20074;-45
2023/02/18 05:47:31;;;;;;;10.88;2.42;;;;;;;9.72;98.00;100868.16;5025920;28;20046;-44
2023/02/18 05:49:57;;;;;;;28.92;2.83;;;;;;;9.69;98.07;100874.34;5021848;28;20045;-44
2023/02/18 05:52:24;;;;;;;9.68;2.05;;;;;;;9.67;98.12;100865.59;5013152;28;20499;-44
2023/02/18 05:54:51;;;;;;;5.05;1.25;;;;;;;9.64;98.14;100878.13;5013665;28;20054;-51
2023/02/18 05:57:18;;;;;;;8.43;2.13;;;;;;;9.63;97.97;100873.75;5012315;28;20037;-44
2023/02/18 05:59:45;;;;;;;9.18;1.83;;;;;;;9.63;98.07;100856.38;5003664;28;20092;-45
2023/02/18 06:02:11;;;;;;;9.38;2.03;;;;;;;9.62;98.05;100860.25;5016588;28;20056;-44
2023/02/18 06:04:39;;;;;;;6.95;1.70;;;;;;;9.62;97.82;100863.03;5015231;28;20120;-47
2023/02/18 06:07:08;;;;;;;9.40;1.60;;;;;;;9.62;97.78;100863.84;5028539;28;20033;-44
2023/02/18 06:09:37;;;;;;;8.40;1.92;;;;;;;9.62;97.75;100882.38;5023073;28;20088;-44
2023/02/18 06:12:04;;;;;;;10.55;2.10;;;;;;;9.61;97.37;100866.97;5030349;28;20049;-46
2023/02/18 06:14:31;;;;;;;9.45;1.50;;;;;;;9.59;97.42;100872.00;5018938;28;20143;-44
2023/02/18 06:16:57;;;;;;;5.38;1.00;;;;;;;9.57;97.33;100883.38;5023556;28;20124;-45
2023/02/18 06:19:24;;;;;;;7.63;1.10;;;;;;;9.59;97.27;100874.75;5023524;28;20050;-45
2023/02/18 06:21:52;;;;;;;9.02;3.88;;;;;;;9.60;97.02;100874.44;5021182;28;20081;-48
2023/02/18 06:24:19;;;;;;;8.05;1.33;;;;;;;9.61;96.76;100869.72;5016332;28;20050;-44
2023/02/18 06:26:45;;;;;;;3.53;1.10;;;;;;;9.62;96.86;100882.38;5012502;28;20045;-45
2023/02/18 06:29:12;;;;;;;7.00;1.10;;;;;;;9.62;96.95;100885.13;5012911;28;20046;-44
2023/02/18 06:31:39;;;;;;;5.00;1.10;;;;;;;9.64;96.90;100896.66;5008056;28;20060;-45
2023/02/18 06:34:06;;;;;;;8.07;1.20;;;;;;;9.69;97.07;100891.75;5035150;28;20041;-44
2023/02/18 06:36:32;;;;;;;7.32;1.75;;;;;;;9.71;96.96;100892.25;5030193;28;20174;-44
2023/02/18 06:39:02;;;;;;;12.02;1.90;;;;;;;9.74;96.84;100885.25;5012802;28;20052;-47
2023/02/18 06:41:29;;;;;;;3.90;1.35;;;;;;;9.73;96.96;100897.44;5028952;28;20376;-45
2023/02/18 06:43:56;;;;;;;10.23;2.22;;;;;;;9.73;96.98;100892.72;5019197;28;20553;-45
2023/02/18 06:46:23;;;;;;;8.60;3.05;;;;;;;9.73;97.16;100902.97;5028914;28;20538;-44
2023/02/18 06:48:50;;;;;;;16.00;3.33;;;;;;;9.74;97.33;100902.63;5029967;28;20045;-44
2023/02/18 06:51:18;;;;;;;10.57;1.45;;;;;;;9.74;97.37;100904.59;5030001;28;20053;-45
2023/02/18 06:53:45;;;;;;;10.85;2.17;;;;;;;9.74;97.33;100912.88;5030207;28;20050;-46
2023/02/18 06:56:11;;;;;;;8.85;1.65;;;;;;;9.74;97.47;100912.88;5020003;28;20064;-45
2023/02/18 06:58:38;;;;;;;3.58;1.10;;;;;;;9.75;97.62;100920.84;5015457;28;20128;-47
2023/02/18 07:01:05;;;;;;;7.05;1.55;;;;;;;9.76;97.56;100922.47;5010731;28;20077;-47
2023/02/18 07:03:32;;;;;;;9.93;2.10;;;;;;;9.77;97.52;100924.06;5015426;28;20045;-46
2023/02/18 07:05:59;;;;;;;11.02;2.05;;;;;;;9.79;97.59;100934.81;5003052;28;20076;-44
2023/02/18 07:08:26;;;;;;;8.60;2.15;;;;;;;9.79;97.80;100938.34;5026800;28;20136;-44
2023/02/18 07:10:53;;;;;;;13.60;3.03;;;;;;;9.80;97.53;100940.00;5030026;28;20037;-45
2023/02/18 07:13:20;;;;;;;11.80;1.73;;;;;;;9.78;97.83;100935.94;5020360;28;20133;-44
2023/02/18 07:15:46;;;;;;;12.68;2.35;;;;;;;9.76;98.00;100950.13;5016297;28;20041;-46
2023/02/18 07:18:13;;;;;;;11.20;2.40;;;;;;;9.73;98.13;100961.84;5021778;28;20063;-48
2023/02/18 07:20:40;;;;;;;18.52;3.10;;;;;;;9.72;98.40;100953.84;5020094;28;20029;-45
2023/02/18 07:23:07;;;;;;;12.15;1.95;;;;;;;9.66;98.64;100964.28;5018156;28;20063;-44
2023/02/18 07:25:33;;;;;;;6.57;2.15;;;;;;;9.60;98.90;100959.31;5024094;28;20041;-44
2023/02/18 07:28:00;;;;;;;10.63;2.35;;;;;;;9.54;99.05;100972.50;5025394;28;20495;-48
2023/02/18 07:30:27;;;;;;;15.55;3.15;;;;;;;9.51;99.24;100975.09;5019838;28;20060;-50
2023/02/18 07:32:54;;;;;;;11.68;1.73;;;;;;;9.49;99.38;100972.69;5004116;28;20029;-46
2023/02/18 07:35:21;;;;;;;8.50;2.22;;;;;;;9.51;99.64;100980.63;5015440;28;20050;-45
2023/02/18 07:37:49;;;;;;;22.17;2.60;;;;;;;9.52;99.54;100987.78;5020929;28;20049;-44
2023/02/18 07:40:20;;;;;;;7.22;1.85;;;;;;;9.52;99.65;100999.66;5007880;28;20045;-44
2023/02/18 07:42:47;;;;;;;13.40;2.13;;;;;;;9.56;99.68;100994.28;5018143;28;20058;-45
2023/02/18 07:45:14;;;;;;;12.13;2.30;;;;;;;9.58;99.68;101003.06;5021635;28;20046;-48
2023/02/18 07:47:47;;;;;;;6.95;2.40;;;;;;;9.63;99.66;101002.88;5017730;28;20132;-44
2023/02/18 07:50:13;;;;;;;;;;;;;;;9.64;99.73;100996.19;5014383;28;20034;-47
2023/02/18 07:52:40;;;;;;;15.88;2.80;;;;;;;9.66;99.55;100994.69;5020460;28;20298;-44
2023/02/18 07:55:07;;;;;;;14.02;2.85;;;;;;;9.69;99.66;101001.53;5027397;28;20049;-44
2023/02/18 07:57:56;;;;;;;10.40;1.70;;;;;;;9.71;99.78;101007.56;5025678;28;20382;-44
2023/02/18 08:00:21;;;;;;;11.05;1.38;;;;;;;9.72;99.83;101009.16;5020867;28;20547;-44
2023/02/18 08:02:48;;;;;;;9.07;2.45;;;;;;;9.74;99.80;101023.47;5027822;28;20057;-45
2023/02/18 08:05:15;;;;;;;10.10;2.75;;;;;;;9.73;99.92;101014.38;5026906;28;20041;-45
2023/02/18 08:07:42;;;;;;;8.23;2.03;;;;;;;9.72;100.00;101017.44;5023120;28;20056;-44
2023/02/18 08:10:09;;;;;;;15.75;2.60;;;;;;;9.70;100.00;101022.50;5009246;28;20096;-48
2023/02/18 08:12:36;;;;;;;11.32;2.38;;;;;;;9.71;100.00;101024.13;5029012;28;20399;-44
2023/02/18 08:15:04;;;;;;;12.95;2.10;;;;;;;9.72;100.00;101023.78;5028907;28;20099;-44
2023/02/18 08:17:31;;;;;;;5.20;2.05;;;;;;;9.75;100.00;101030.59;5015272;28;20074;-44
2023/02/18 08:19:57;;;;;;;10.95;2.03;;;;;;;9.75;100.00;101020.38;5028192;28;20689;-44
2023/02/18 08:22:24;;;;;;;8.15;1.60;;;;;;;9.77;100.00;101028.31;5022149;28;20060;-43
2023/02/18 08:24:54;;;;;;;8.68;1.65;;;;;;;9.77;100.00;101034.66;5020598;28;20124;-44
2023/02/18 08:27:23;;;;;;;5.82;1.23;;;;;;;9.80;100.00;101035.94;5022167;28;20054;-44
2023/02/18 08:29:50;;;;;;;10.70;2.08;;;;;;;9.81;100.00;101045.88;5010297;28;20594;-44
2023/02/18 08:32:17;;;;;;;10.88;1.90;;;;;;;9.82;100.00;101053.03;5023729;28;20458;-44
2023/02/18 08:34:43;;;;;;;4.32;1.58;;;;;;;9.82;100.00;101057.75;5032658;28;20053;-48
2023/02/18 08:37:10;;;;;;;6.57;1.30;;;;;;;9.84;100.00;101056.28;5028475;28;20080;-44
2023/02/18 08:39:38;;;;;;;11.02;2.28;;;;;;;9.84;100.00;101056.28;5028453;28;20049;-44
2023/02/18 08:42:05;;;;;;;10.00;3.25;;;;;;;9.85;100.00;101057.88;5027312;28;20479;-44
2023/02/18 08:44:32;;;;;;;6.88;1.42;;;;;;;9.85;100.00;101073.69;5028286;28;20139;-44
2023/02/18 08:46:59;;;;;;;4.90;1.77;;;;;;;9.85;100.00;101062.63;5028397;28;20049;-45
2023/02/18 08:49:26;;;;;;;6.78;2.42;;;;;;;9.84;100.00;101078.41;5031394;28;20144;-45
2023/02/18 08:51:53;;;;;;;9.43;1.35;;;;;;;9.84;100.00;101067.34;5014632;28;20045;-45
2023/02/18 08:54:20;;;;;;;8.45;1.80;;;;;;;9.86;100.00;101080.81;5032338;28;20053;-46
2023/02/18 08:56:47;;;;;;;5.88;1.30;;;;;;;9.85;100.00;101077.25;5032232;28;20049;-44
2023/02/18 08:59:14;;;;;;;8.65;1.30;;;;;;;9.84;100.00;101083.13;5031593;28;20372;-45
2023/02/18 09:01:41;;;;;;;7.63;2.03;;;;;;;9.83;100.00;101090.59;5031742;28;20046;-45
2023/02/18 09:04:07;;;;;;;5.88;2.60;;;;;;;9.84;100.00;101108.00;5031993;28;20410;-45
2023/02/18 09:06:37;;;;;;;11.23;3.28;;;;;;;9.82;100.00;101113.88;5014464;28;20076;-48
2023/02/18 09:09:04;;;;;;;12.13;3.88;;;;;;;9.77;100.00;101105.75;5032107;28;20041;-44
2023/02/18 09:11:31;;;;;;;7.85;1.90;;;;;;;9.75;100.00;101117.13;5035422;28;20046;-45
2023/02/18 09:13:58;;;;;;;12.60;2.10;;;;;;;9.74;100.00;101107.22;5032063;28;20380;-45
2023/02/18 09:16:27;;;;;;;11.77;1.90;;;;;;;9.73;100.00;101113.09;5019162;28;20120;-49
2023/02/18 09:18:53;;;;;;;11.25;2.13;;;;;;;9.71;100.00;101096.84;5031980;28;20553;-45
2023/02/18 09:21:22;;;;;;;13.82;2.53;;;;;;;9.71;100.00;101104.31;5014308;28;20099;-50
2023/02/18 09:23:50;;;;;;;8.65;1.95;;;;;;;9.69;100.00;101099.09;5031706;28;20049;-47
2023/02/18 09:26:21;;;;;;;9.60;2.80;;;;;;;9.71;100.00;101098.78;5019017;28;20045;-45
2023/02/18 09:28:49;;;;;;;10.10;2.50;;;;;;;9.73;100.00;101100.06;5031688;28;20088;-47
2023/02/18 09:31:19;;;;;;;11.10;1.65;;;;;;;9.79;100.00;101109.00;5031056;28;20427;-45
2023/02/18 09:34:00;;;;;;;11.23;2.28;;;;;;;9.86;100.00;101103.75;5035600;28;20045;-45
2023/02/18 09:36:27;;;;;;;18.08;3.53;;;;;;;9.89;100.00;101111.41;5031601;28;20073;-45
2023/02/18 09:38:54;;;;;;;6.15;1.75;;;;;;;9.91;100.00;101114.63;5031342;28;20095;-45
2023/02/18 09:41:42;;;;;;;17.77;4.35;;;;;;;9.96;100.00;101114.44;5031334;28;20539;-44
2023/02/18 09:44:25;;;;;;;9.85;2.67;;;;;;;10.01;100.00;101111.50;5031461;28;20045;-45
2023/02/18 09:47:03;;;;;;;10.82;2.42;;;;;;;10.06;100.00;101107.75;5029990;28;20505;-45
2023/02/18 09:49:34;;;;;;;12.00;2.22;;;;;;;10.11;100.00;101119.41;5031083;28;20049;-45
2023/02/18 09:52:24;;;;;;;19.15;2.75;;;;;;;10.17;100.00;101115.34;5030909;28;20045;-45
2023/02/18 09:54:51;;;;;;;14.18;2.75;;;;;;;10.21;100.00;101119.09;5031148;28;20457;-48
2023/02/18 09:57:44;;;;;;;14.90;3.85;;;;;;;10.27;100.00;101126.03;5030819;28;20099;-45
2023/02/18 10:00:23;;;;;;;11.63;2.47;;;;;;;10.29;100.00;101129.31;5029548;28;20057;-48
2023/02/18 10:03:06;;;;;;;12.60;1.90;;;;;;;10.32;100.00;101130.59;5030813;28;20069;-48
2023/02/18 10:05:35;;;;;;;14.40;2.95;;;;;;;10.35;100.00;101127.16;5030111;28;20129;-44
2023/02/18 10:08:06;;;;;;;16.08;3.47;;;;;;;10.36;100.00;101134.31;5030913;28;20050;-44
2023/02/18 10:10:42;;;;;;;18.85;3.75;;;;;;;10.41;100.00;101131.34;5034679;28;20436;-45
2023/02/18 10:13:19;;;;;;;14.63;4.93;;;;;;;10.47;100.00;101131.97;5029606;28;20041;-45
2023/02/18 10:15:46;;;;;;;25.92;5.53;;;;;;;10.51;100.00;101146.78;5030762;28;20640;-45
2023/02/18 10:18:40;;;;;;;12.93;3.10;;;;;;;10.52;100.00;101146.41;5030603;28;20176;-46
2023/02/18 10:21:13;;;;;;;15.10;2.80;;;;;;;10.50;100.00;101140.41;5024162;28;20558;-44
2023/02/18 10:23:49;;;;;;;17.90;2.65;;;;;;;10.53;100.00;101144.47;5029667;28;20107;-50
2023/02/18 10:26:17;;;;;;;15.80;3.17;;;;;;;10.52;100.00;101142.84;5030927;28;20883;-45
2023/02/18 10:28:45;;;;;;;13.82;2.60;;;;;;;10.54;100.00;101132.25;5030553;28;20067;-51
2023/02/18 10:31:24;;;;;;;13.57;2.33;;;;;;;10.55;100.00;101133.88;5017719;28;20069;-45
2023/02/18 10:34:03;;;;;;;11.90;2.97;;;;;;;10.54;99.68;101137.81;5034765;28;20136;-45
2023/02/18 10:36:44;;;;;;;17.75;2.72;;;;;;;10.56;99.45;101128.00;5029950;28;20053;-45
2023/02/18 10:39:44;;;;;;;14.95;3.83;;;;;;;10.60;99.30;101140.03;5029385;28;20083;-50
2023/02/18 10:42:29;;;;;;;10.10;3.65;;;;;;;10.62;99.07;101148.78;5027600;28;20488;-45
2023/02/18 10:45:21;;;;;;;19.15;3.42;;;;;;;10.63;98.49;101139.34;5029929;28;20140;-46
2023/02/18 10:48:03;;;;;;;16.40;3.35;;;;;;;10.64;98.45;101140.16;5020176;28;20077;-45
2023/02/18 10:50:33;;;;;;;;;;;;;;;10.64;98.35;101137.41;5030259;28;20049;-45
2023/02/18 10:53:26;;;;;;;19.08;2.92;;;;;;;10.63;98.21;101139.34;5030083;28;20268;-45
2023/02/18 10:55:55;;;;;;;11.65;2.50;;;;;;;10.64;98.19;101123.56;5019988;28;20124;-44
2023/02/18 10:58:22;;;;;;;13.88;3.75;;;;;;;10.67;98.22;101129.22;5029065;28;20132;-44
2023/02/18 11:00:49;;;;;;;13.57;2.65;;;;;;;10.69;98.10;101131.66;5029793;28;20092;-45
2023/02/18 11:03:19;;;;;;;9.32;2.15;;;;;;;10.69;97.97;101123.34;5029964;28;20410;-45
2023/02/18 11:05:49;;;;;;;10.63;2.25;;;;;;;10.67;97.94;101128.44;5029544;28;20061;-45
2023/02/18 11:08:42;;;;;;;11.18;2.20;;;;;;;10.65;98.16;101117.66;5029611;28;20061;-45
2023/02/18 11:11:13;;;;;;;;;;;;;;;10.62;98.23;101128.59;5033275;28;20117;-51
2023/02/18 11:13:40;;;;;;;14.25;2.45;;;;;;;10.58;98.02;101130.44;5028797;28;19924;-44
2023/02/18 11:16:08;;;;;;;22.42;4.07;;;;;;;10.53;98.03;101123.13;5029535;28;20042;-49
2023/02/18 11:18:40;;;;;;;12.20;2.30;;;;;;;10.51;98.20;101119.88;5029387;28;20041;-45
2023/02/18 11:21:30;;;;;;;14.57;2.53;;;;;;;10.52;98.41;101110.44;5029175;28;20525;-44
2023/02/18 11:24:07;;;;;;;14.23;2.78;;;;;;;10.53;98.43;101111.25;5028976;28;20140;-49
2023/02/18 11:26:35;;;;;;;18.15;4.15;;;;;;;10.50;98.50;101106.38;5029582;28;20046;-45
2023/02/18 11:29:13;;;;;;;21.75;3.47;;;;;;;10.49;98.61;101113.06;5029327;28;20080;-45
2023/02/18 11:31:46;;;;;;;17.80;3.55;;;;;;;10.47;98.76;101101.50;5028588;28;20061;-45
2023/02/18 11:34:23;;;;;;;16.05;2.90;;;;;;;10.48;98.76;101108.69;5034596;28;20049;-45
2023/02/18 11:36:52;;;;;;;9.35;2.17;;;;;;;10.49;98.94;101111.09;5029412;28;20048;-44
2023/02/18 11:39:25;;;;;;;17.23;3.83;;;;;;;10.51;98.70;101108.00;5029190;28;20057;-47
2023/02/18 11:42:02;;;;;;;12.82;2.58;;;;;;;10.56;98.90;101097.56;5025463;28;20046;-45
2023/02/18 11:44:41;;;;;;;8.63;2.72;;;;;;;10.68;98.63;101094.84;5014335;28;20041;-46